sensor_id;sensor_type;location;lat;lon;timestamp;pressure;altitude;pressure_sealevel;temperature;humidity
78855;BME280;68206;59.956;30.234;2023-03-01T00:00:08;101169.25;;;-2.25;47.32
78855;BME280;68206;59.956;30.234;2023-03-01T00:02:38;101176.06;;;-2.28;47.23
78855;BME280;68206;59.956;30.234;2023-03-01T00:05:07;101177.84;;;-2.27;48.21
78855;BME280;68206;59.956;30.234;2023-03-01T00:07:36;101176.19;;;-2.24;47.73
78855;BME280;68206;59.956;30.234;2023-03-01T00:10:05;101184.00;;;-2.24;47.33
78855;BME280;68206;59.956;30.234;2023-03-01T00:12:36;101184.19;;;-2.18;47.63
78855;BME280;68206;59.956;30.234;2023-03-01T00:15:05;101193.03;;;-2.11;47.69
78855;BME280;68206;59.956;30.234;2023-03-01T00:17:34;101180.19;;;-2.07;47.44
78855;BME280;68206;59.956;30.234;2023-03-01T00:20:04;101194.16;;;-2.03;47.16
78855;BME280;68206;59.956;30.234;2023-03-01T00:22:35;101179.44;;;-2.03;47.17
78855;BME280;68206;59.956;30.234;2023-03-01T00:25:04;101190.88;;;-1.96;47.71
78855;BME280;68206;59.956;30.234;2023-03-01T00:27:33;101187.47;;;-1.95;47.76
78855;BME280;68206;59.956;30.234;2023-03-01T00:30:04;101189.22;;;-1.94;47.13
78855;BME280;68206;59.956;30.234;2023-03-01T00:32:33;101180.66;;;-1.90;47.91
78855;BME280;68206;59.956;30.234;2023-03-01T00:35:02;101181.59;;;-1.86;47.70
78855;BME280;68206;59.956;30.234;2023-03-01T00:37:33;101180.88;;;-1.82;48.04
78855;BME280;68206;59.956;30.234;2023-03-01T00:40:01;101184.47;;;-1.77;47.38
78855;BME280;68206;59.956;30.234;2023-03-01T00:42:33;101177.69;;;-1.72;47.29
78855;BME280;68206;59.956;30.234;2023-03-01T00:45:04;101191.56;;;-1.72;48.02
78855;BME280;68206;59.956;30.234;2023-03-01T00:47:35;101189.22;;;-1.63;48.53
78855;BME280;68206;59.956;30.234;2023-03-01T00:50:04;101189.19;;;-1.64;48.19
78855;BME280;68206;59.956;30.234;2023-03-01T00:52:33;101184.75;;;-1.67;48.44
78855;BME280;68206;59.956;30.234;2023-03-01T00:55:03;101185.66;;;-1.66;47.60
78855;BME280;68206;59.956;30.234;2023-03-01T00:57:32;101181.38;;;-1.64;48.41
78855;BME280;68206;59.956;30.234;2023-03-01T01:00:01;101184.19;;;-1.56;48.04
78855;BME280;68206;59.956;30.234;2023-03-01T01:02:33;101192.91;;;-1.54;48.49
78855;BME280;68206;59.956;30.234;2023-03-01T01:05:03;101193.81;;;-1.52;48.03
78855;BME280;68206;59.956;30.234;2023-03-01T01:07:33;101198.31;;;-1.47;48.66
78855;BME280;68206;59.956;30.234;2023-03-01T01:10:02;101187.84;;;-1.48;49.06
78855;BME280;68206;59.956;30.234;2023-03-01T01:12:31;101193.09;;;-1.47;48.20
78855;BME280;68206;59.956;30.234;2023-03-01T01:15:00;101183.59;;;-1.46;47.92
78855;BME280;68206;59.956;30.234;2023-03-01T01:17:29;101186.13;;;-1.48;48.71
78855;BME280;68206;59.956;30.234;2023-03-01T01:19:59;101184.41;;;-1.47;48.83
78855;BME280;68206;59.956;30.234;2023-03-01T01:22:28;101195.69;;;-1.47;49.08
78855;BME280;68206;59.956;30.234;2023-03-01T01:24:57;101196.66;;;-1.43;49.11
78855;BME280;68206;59.956;30.234;2023-03-01T01:27:26;101191.59;;;-1.39;49.30
78855;BME280;68206;59.956;30.234;2023-03-01T01:29:55;101195.81;;;-1.44;49.32
78855;BME280;68206;59.956;30.234;2023-03-01T01:32:23;101195.59;;;-1.50;48.91
78855;BME280;68206;59.956;30.234;2023-03-01T01:34:53;101199.09;;;-1.49;48.40
78855;BME280;68206;59.956;30.234;2023-03-01T01:37:23;101193.94;;;-1.48;48.35
78855;BME280;68206;59.956;30.234;2023-03-01T01:39:58;101195.66;;;-1.48;48.53
78855;BME280;68206;59.956;30.234;2023-03-01T01:42:28;101193.88;;;-1.51;48.66
78855;BME280;68206;59.956;30.234;2023-03-01T01:45:27;101196.47;;;-1.51;49.23
78855;BME280;68206;59.956;30.234;2023-03-01T01:47:59;101192.00;;;-1.56;49.29
78855;BME280;68206;59.956;30.234;2023-03-01T01:50:30;101191.91;;;-1.59;49.20
78855;BME280;68206;59.956;30.234;2023-03-01T01:53:10;101195.25;;;-1.64;48.83
78855;BME280;68206;59.956;30.234;2023-03-01T01:55:43;101191.78;;;-1.64;49.55
78855;BME280;68206;59.956;30.234;2023-03-01T01:58:18;101194.28;;;-1.67;49.59
78855;BME280;68206;59.956;30.234;2023-03-01T02:00:48;101190.63;;;-1.74;49.91
78855;BME280;68206;59.956;30.234;2023-03-01T02:03:19;101196.66;;;-1.76;50.40
78855;BME280;68206;59.956;30.234;2023-03-01T02:05:53;101206.91;;;-1.81;50.53
78855;BME280;68206;59.956;30.234;2023-03-01T02:08:28;101199.91;;;-1.83;50.30
78855;BME280;68206;59.956;30.234;2023-03-01T02:10:58;101200.63;;;-1.89;50.59
78855;BME280;68206;59.956;30.234;2023-03-01T02:13:28;101211.75;;;-1.93;50.35
78855;BME280;68206;59.956;30.234;2023-03-01T02:15:57;101217.75;;;-1.95;50.03
78855;BME280;68206;59.956;30.234;2023-03-01T02:18:27;101220.19;;;-2.01;50.70
78855;BME280;68206;59.956;30.234;2023-03-01T02:21:07;101218.41;;;-2.03;51.25
78855;BME280;68206;59.956;30.234;2023-03-01T02:23:38;101226.22;;;-2.03;50.74
78855;BME280;68206;59.956;30.234;2023-03-01T02:26:13;101220.00;;;-2.08;50.32
78855;BME280;68206;59.956;30.234;2023-03-01T02:28:45;101217.31;;;-2.11;50.65
78855;BME280;68206;59.956;30.234;2023-03-01T02:31:17;101212.94;;;-2.12;51.03
78855;BME280;68206;59.956;30.234;2023-03-01T02:34:13;101219.84;;;-2.12;51.71
78855;BME280;68206;59.956;30.234;2023-03-01T02:36:46;101220.78;;;-2.10;51.14
78855;BME280;68206;59.956;30.234;2023-03-01T02:39:18;101226.09;;;-2.06;50.87
78855;BME280;68206;59.956;30.234;2023-03-01T02:41:51;101227.75;;;-2.09;51.30
78855;BME280;68206;59.956;30.234;2023-03-01T02:44:22;101224.19;;;-2.13;51.14
78855;BME280;68206;59.956;30.234;2023-03-01T02:46:52;101236.31;;;-2.13;51.43
78855;BME280;68206;59.956;30.234;2023-03-01T02:49:24;101231.03;;;-2.15;50.80
78855;BME280;68206;59.956;30.234;2023-03-01T02:52:04;101233.66;;;-2.15;51.88
78855;BME280;68206;59.956;30.234;2023-03-01T02:54:40;101230.22;;;-2.14;51.46
78855;BME280;68206;59.956;30.234;2023-03-01T02:57:10;101231.94;;;-2.14;51.15
78855;BME280;68206;59.956;30.234;2023-03-01T02:59:42;101232.00;;;-2.11;51.42
78855;BME280;68206;59.956;30.234;2023-03-01T03:02:19;101221.53;;;-2.14;50.94
78855;BME280;68206;59.956;30.234;2023-03-01T03:05:17;101220.66;;;-2.15;51.06
78855;BME280;68206;59.956;30.234;2023-03-01T03:07:49;101224.00;;;-2.19;51.37
78855;BME280;68206;59.956;30.234;2023-03-01T03:10:21;101222.97;;;-2.24;51.48
78855;BME280;68206;59.956;30.234;2023-03-01T03:12:51;101220.34;;;-2.25;51.49
78855;BME280;68206;59.956;30.234;2023-03-01T03:15:22;101216.94;;;-2.23;51.84
78855;BME280;68206;59.956;30.234;2023-03-01T03:17:52;101223.13;;;-2.19;52.10
78855;BME280;68206;59.956;30.234;2023-03-01T03:20:24;101222.31;;;-2.17;52.20
78855;BME280;68206;59.956;30.234;2023-03-01T03:22:54;101222.25;;;-2.18;51.79
78855;BME280;68206;59.956;30.234;2023-03-01T03:25:24;101229.09;;;-2.22;51.58
78855;BME280;68206;59.956;30.234;2023-03-01T03:27:53;101228.22;;;-2.22;51.82
78855;BME280;68206;59.956;30.234;2023-03-01T03:30:27;101229.97;;;-2.21;51.68
78855;BME280;68206;59.956;30.234;2023-03-01T03:32:57;101221.25;;;-2.23;51.72
78855;BME280;68206;59.956;30.234;2023-03-01T03:35:28;101231.66;;;-2.23;51.75
78855;BME280;68206;59.956;30.234;2023-03-01T03:37:58;101227.28;;;-2.24;51.84
78855;BME280;68206;59.956;30.234;2023-03-01T03:40:32;101226.31;;;-2.28;52.31
78855;BME280;68206;59.956;30.234;2023-03-01T03:43:02;101221.94;;;-2.29;51.88
78855;BME280;68206;59.956;30.234;2023-03-01T03:45:32;101230.63;;;-2.28;51.73
78855;BME280;68206;59.956;30.234;2023-03-01T03:48:04;101233.22;;;-2.28;52.00
78855;BME280;68206;59.956;30.234;2023-03-01T03:50:33;101230.38;;;-2.36;52.15
78855;BME280;68206;59.956;30.234;2023-03-01T03:53:04;101229.56;;;-2.35;52.44
78855;BME280;68206;59.956;30.234;2023-03-01T03:55:33;101234.75;;;-2.35;52.87
78855;BME280;68206;59.956;30.234;2023-03-01T03:58:03;101237.28;;;-2.36;52.16
78855;BME280;68206;59.956;30.234;2023-03-01T04:00:37;101231.00;;;-2.45;52.79
78855;BME280;68206;59.956;30.234;2023-03-01T04:03:06;101238.06;;;-2.40;52.73
78855;BME280;68206;59.956;30.234;2023-03-01T04:05:36;101239.88;;;-2.38;52.63
78855;BME280;68206;59.956;30.234;2023-03-01T04:08:05;101242.47;;;-2.38;52.36
78855;BME280;68206;59.956;30.234;2023-03-01T04:10:36;101239.75;;;-2.41;52.44
78855;BME280;68206;59.956;30.234;2023-03-01T04:13:07;101237.75;;;-2.50;52.53
78855;BME280;68206;59.956;30.234;2023-03-01T04:15:39;101233.41;;;-2.51;53.60
78855;BME280;68206;59.956;30.234;2023-03-01T04:18:08;101232.41;;;-2.54;52.89
78855;BME280;68206;59.956;30.234;2023-03-01T04:20:41;101232.28;;;-2.59;53.51
78855;BME280;68206;59.956;30.234;2023-03-01T04:23:11;101237.34;;;-2.63;53.23
78855;BME280;68206;59.956;30.234;2023-03-01T04:25:46;101236.47;;;-2.62;53.10
78855;BME280;68206;59.956;30.234;2023-03-01T04:28:16;101229.63;;;-2.60;53.49
78855;BME280;68206;59.956;30.234;2023-03-01T04:30:46;101232.91;;;-2.66;53.31
78855;BME280;68206;59.956;30.234;2023-03-01T04:33:15;101236.22;;;-2.71;53.38
78855;BME280;68206;59.956;30.234;2023-03-01T04:35:44;101240.50;;;-2.72;53.78
78855;BME280;68206;59.956;30.234;2023-03-01T04:38:13;101232.66;;;-2.73;53.55
78855;BME280;68206;59.956;30.234;2023-03-01T04:40:42;101242.28;;;-2.71;53.92
78855;BME280;68206;59.956;30.234;2023-03-01T04:43:12;101243.94;;;-2.73;53.32
78855;BME280;68206;59.956;30.234;2023-03-01T04:45:42;101247.41;;;-2.72;53.97
78855;BME280;68206;59.956;30.234;2023-03-01T04:48:12;101260.41;;;-2.72;53.86
78855;BME280;68206;59.956;30.234;2023-03-01T04:50:41;101257.84;;;-2.71;53.47
78855;BME280;68206;59.956;30.234;2023-03-01T04:53:09;101270.78;;;-2.72;53.81
78855;BME280;68206;59.956;30.234;2023-03-01T04:55:38;101278.63;;;-2.71;53.49
78855;BME280;68206;59.956;30.234;2023-03-01T04:58:07;101271.72;;;-2.70;53.94
78855;BME280;68206;59.956;30.234;2023-03-01T05:00:36;101280.22;;;-2.74;53.84
78855;BME280;68206;59.956;30.234;2023-03-01T05:03:04;101287.16;;;-2.75;54.12
78855;BME280;68206;59.956;30.234;2023-03-01T05:05:36;101296.84;;;-2.69;53.81
78855;BME280;68206;59.956;30.234;2023-03-01T05:08:07;101290.78;;;-2.70;53.02
78855;BME280;68206;59.956;30.234;2023-03-01T05:10:36;101299.53;;;-2.66;53.87
78855;BME280;68206;59.956;30.234;2023-03-01T05:13:06;101261.22;;;-2.73;53.61
78855;BME280;68206;59.956;30.234;2023-03-01T05:15:35;101295.31;;;-2.37;53.18
78855;BME280;68206;59.956;30.234;2023-03-01T05:18:05;101275.00;;;-1.94;52.23
78855;BME280;68206;59.956;30.234;2023-03-01T05:20:40;101276.59;;;-1.38;50.55
78855;BME280;68206;59.956;30.234;2023-03-01T05:23:09;101280.56;;;-0.86;49.00
78855;BME280;68206;59.956;30.234;2023-03-01T05:25:37;101291.56;;;-0.27;47.80
78855;BME280;68206;59.956;30.234;2023-03-01T05:28:11;101285.25;;;0.41;45.98
78855;BME280;68206;59.956;30.234;2023-03-01T05:30:40;101275.13;;;1.03;44.26
78855;BME280;68206;59.956;30.234;2023-03-01T05:33:09;101281.28;;;1.56;42.55
78855;BME280;68206;59.956;30.234;2023-03-01T05:35:43;101280.50;;;2.22;41.11
78855;BME280;68206;59.956;30.234;2023-03-01T05:38:13;101273.28;;;2.75;39.61
78855;BME280;68206;59.956;30.234;2023-03-01T05:40:42;101279.00;;;3.25;38.27
78855;BME280;68206;59.956;30.234;2023-03-01T05:43:13;101278.63;;;3.84;36.97
78855;BME280;68206;59.956;30.234;2023-03-01T05:45:42;101271.94;;;4.40;35.99
78855;BME280;68206;59.956;30.234;2023-03-01T05:48:12;101276.53;;;5.05;34.74
78855;BME280;68206;59.956;30.234;2023-03-01T05:50:43;101281.81;;;5.67;33.77
78855;BME280;68206;59.956;30.234;2023-03-01T05:53:15;101272.94;;;6.32;32.26
78855;BME280;68206;59.956;30.234;2023-03-01T05:55:45;101277.91;;;6.99;30.88
78855;BME280;68206;59.956;30.234;2023-03-01T05:58:16;101277.47;;;7.60;30.22
78855;BME280;68206;59.956;30.234;2023-03-01T06:00:47;101268.25;;;8.00;28.91
78855;BME280;68206;59.956;30.234;2023-03-01T06:03:17;101271.47;;;8.33;28.56
78855;BME280;68206;59.956;30.234;2023-03-01T06:05:47;101269.22;;;8.73;28.02
78855;BME280;68206;59.956;30.234;2023-03-01T06:08:16;101271.41;;;9.05;27.60
78855;BME280;68206;59.956;30.234;2023-03-01T06:10:47;101270.06;;;9.36;26.43
78855;BME280;68206;59.956;30.234;2023-03-01T06:13:16;101258.13;;;9.63;26.15
78855;BME280;68206;59.956;30.234;2023-03-01T06:15:44;101264.84;;;9.82;25.81
78855;BME280;68206;59.956;30.234;2023-03-01T06:18:13;101264.63;;;9.94;25.50
78855;BME280;68206;59.956;30.234;2023-03-01T06:20:42;101259.06;;;10.08;25.58
78855;BME280;68206;59.956;30.234;2023-03-01T06:23:12;101261.59;;;10.17;25.47
78855;BME280;68206;59.956;30.234;2023-03-01T06:25:41;101258.22;;;10.06;25.51
78855;BME280;68206;59.956;30.234;2023-03-01T06:28:10;101259.13;;;9.56;25.92
78855;BME280;68206;59.956;30.234;2023-03-01T06:30:38;101262.41;;;9.16;26.24
78855;BME280;68206;59.956;30.234;2023-03-01T06:33:07;101267.13;;;8.96;27.29
78855;BME280;68206;59.956;30.234;2023-03-01T06:35:36;101264.03;;;8.64;26.77
78855;BME280;68206;59.956;30.234;2023-03-01T06:38:05;101267.16;;;8.24;28.39
78855;BME280;68206;59.956;30.234;2023-03-01T06:40:35;101265.72;;;7.90;29.06
78855;BME280;68206;59.956;30.234;2023-03-01T06:43:04;101270.44;;;7.59;29.91
78855;BME280;68206;59.956;30.234;2023-03-01T06:45:34;101274.97;;;7.43;29.56
78855;BME280;68206;59.956;30.234;2023-03-01T06:48:04;101282.13;;;7.26;30.21
78855;BME280;68206;59.956;30.234;2023-03-01T06:50:34;101272.44;;;7.26;30.42
78855;BME280;68206;59.956;30.234;2023-03-01T06:53:03;101272.97;;;7.69;29.44
78855;BME280;68206;59.956;30.234;2023-03-01T06:55:32;101269.22;;;7.93;29.15
78855;BME280;68206;59.956;30.234;2023-03-01T06:58:03;101265.41;;;8.23;28.27
78855;BME280;68206;59.956;30.234;2023-03-01T07:00:32;101270.44;;;9.12;27.32
78855;BME280;68206;59.956;30.234;2023-03-01T07:03:01;101270.88;;;10.38;25.73
78855;BME280;68206;59.956;30.234;2023-03-01T07:05:33;101271.03;;;11.50;23.78
78855;BME280;68206;59.956;30.234;2023-03-01T07:08:02;101268.56;;;12.12;23.27
78855;BME280;68206;59.956;30.234;2023-03-01T07:10:31;101262.38;;;13.03;22.44
78855;BME280;68206;59.956;30.234;2023-03-01T07:13:00;101258.22;;;13.76;21.07
78855;BME280;68206;59.956;30.234;2023-03-01T07:15:30;101266.16;;;14.53;20.54
78855;BME280;68206;59.956;30.234;2023-03-01T07:18:00;101269.56;;;15.25;19.90
78855;BME280;68206;59.956;30.234;2023-03-01T07:20:29;101259.59;;;16.14;18.66
78855;BME280;68206;59.956;30.234;2023-03-01T07:22:57;101264.78;;;15.12;19.25
78855;BME280;68206;59.956;30.234;2023-03-01T07:25:26;101256.81;;;14.65;19.89
78855;BME280;68206;59.956;30.234;2023-03-01T07:27:55;101263.00;;;13.93;20.87
78855;BME280;68206;59.956;30.234;2023-03-01T07:30:24;101259.44;;;13.92;20.53
78855;BME280;68206;59.956;30.234;2023-03-01T07:32:57;101260.66;;;12.41;21.75
78855;BME280;68206;59.956;30.234;2023-03-01T07:35:27;101275.81;;;10.98;24.30
78855;BME280;68206;59.956;30.234;2023-03-01T07:37:56;101263.41;;;11.72;23.76
78855;BME280;68206;59.956;30.234;2023-03-01T07:40:25;101257.50;;;13.71;21.31
78855;BME280;68206;59.956;30.234;2023-03-01T07:42:57;101266.28;;;14.74;19.93
78855;BME280;68206;59.956;30.234;2023-03-01T07:45:27;101253.56;;;15.47;19.41
78855;BME280;68206;59.956;30.234;2023-03-01T07:47:57;101250.53;;;16.37;18.53
78855;BME280;68206;59.956;30.234;2023-03-01T07:50:26;101248.75;;;16.96;17.86
78855;BME280;68206;59.956;30.234;2023-03-01T07:52:55;101235.84;;;17.22;17.78
78855;BME280;68206;59.956;30.234;2023-03-01T07:55:24;101244.47;;;17.29;17.41
78855;BME280;68206;59.956;30.234;2023-03-01T07:57:53;101228.03;;;16.62;17.47
78855;BME280;68206;59.956;30.234;2023-03-01T08:00:22;101223.88;;;15.31;18.91
78855;BME280;68206;59.956;30.234;2023-03-01T08:02:51;101210.38;;;14.92;19.37
78855;BME280;68206;59.956;30.234;2023-03-01T08:05:21;101213.44;;;15.47;18.99
78855;BME280;68206;59.956;30.234;2023-03-01T08:07:50;101220.06;;;15.81;18.69
78855;BME280;68206;59.956;30.234;2023-03-01T08:10:18;101227.31;;;16.38;17.71
78855;BME280;68206;59.956;30.234;2023-03-01T08:12:47;101214.09;;;16.74;17.99
78855;BME280;68206;59.956;30.234;2023-03-01T08:15:16;101205.56;;;15.86;18.16
78855;BME280;68206;59.956;30.234;2023-03-01T08:17:48;101215.13;;;14.13;20.26
78855;BME280;68206;59.956;30.234;2023-03-01T08:20:18;101208.59;;;14.46;20.34
78855;BME280;68206;59.956;30.234;2023-03-01T08:22:48;101215.94;;;14.63;20.22
78855;BME280;68206;59.956;30.234;2023-03-01T08:25:17;101217.34;;;12.95;22.27
78855;BME280;68206;59.956;30.234;2023-03-01T08:27:46;101231.00;;;10.84;24.97
78855;BME280;68206;59.956;30.234;2023-03-01T08:30:15;101220.38;;;9.52;27.60
78855;BME280;68206;59.956;30.234;2023-03-01T08:32:44;101227.25;;;8.47;29.31
78855;BME280;68206;59.956;30.234;2023-03-01T08:35:13;101228.88;;;7.81;30.23
78855;BME280;68206;59.956;30.234;2023-03-01T08:37:42;101229.28;;;7.35;31.49
78855;BME280;68206;59.956;30.234;2023-03-01T08:40:13;101232.38;;;6.74;33.42
78855;BME280;68206;59.956;30.234;2023-03-01T08:42:42;101230.81;;;6.25;34.67
78855;BME280;68206;59.956;30.234;2023-03-01T08:45:11;101226.53;;;5.84;35.82
78855;BME280;68206;59.956;30.234;2023-03-01T08:47:42;101236.22;;;5.58;36.42
78855;BME280;68206;59.956;30.234;2023-03-01T08:50:10;101235.38;;;5.30;37.58
78855;BME280;68206;59.956;30.234;2023-03-01T08:52:39;101232.72;;;5.06;38.12
78855;BME280;68206;59.956;30.234;2023-03-01T08:55:09;101225.66;;;4.94;38.71
78855;BME280;68206;59.956;30.234;2023-03-01T08:57:40;101237.91;;;4.81;39.17
78855;BME280;68206;59.956;30.234;2023-03-01T09:00:09;101228.31;;;4.85;39.50
78855;BME280;68206;59.956;30.234;2023-03-01T09:02:42;101237.91;;;4.77;39.69
78855;BME280;68206;59.956;30.234;2023-03-01T09:05:11;101217.78;;;4.80;40.20
78855;BME280;68206;59.956;30.234;2023-03-01T09:07:39;101222.16;;;4.81;40.17
78855;BME280;68206;59.956;30.234;2023-03-01T09:10:09;101218.66;;;4.84;40.57
78855;BME280;68206;59.956;30.234;2023-03-01T09:12:40;101211.66;;;4.89;39.94
78855;BME280;68206;59.956;30.234;2023-03-01T09:15:09;101228.31;;;4.90;40.29
78855;BME280;68206;59.956;30.234;2023-03-01T09:17:38;101222.19;;;4.97;39.66
78855;BME280;68206;59.956;30.234;2023-03-01T09:20:08;101213.38;;;4.76;40.56
78855;BME280;68206;59.956;30.234;2023-03-01T09:22:37;101202.00;;;4.71;40.89
78855;BME280;68206;59.956;30.234;2023-03-01T09:25:06;101208.94;;;4.48;41.53
78855;BME280;68206;59.956;30.234;2023-03-01T09:27:35;101201.88;;;4.30;41.94
78855;BME280;68206;59.956;30.234;2023-03-01T09:30:07;101209.75;;;4.29;41.90
78855;BME280;68206;59.956;30.234;2023-03-01T09:32:36;101207.03;;;4.09;42.48
78855;BME280;68206;59.956;30.234;2023-03-01T09:35:10;101214.00;;;3.98;43.29
78855;BME280;68206;59.956;30.234;2023-03-01T09:37:38;101217.41;;;3.85;43.75
78855;BME280;68206;59.956;30.234;2023-03-01T09:40:14;101205.19;;;3.87;43.05
78855;BME280;68206;59.956;30.234;2023-03-01T09:42:53;101196.47;;;4.00;43.15
78855;BME280;68206;59.956;30.234;2023-03-01T09:45:29;101198.25;;;3.99;44.05
78855;BME280;68206;59.956;30.234;2023-03-01T09:48:02;101189.53;;;4.06;43.88
78855;BME280;68206;59.956;30.234;2023-03-01T09:50:34;101186.91;;;4.08;43.75
78855;BME280;68206;59.956;30.234;2023-03-01T09:53:06;101181.66;;;4.06;43.89
78855;BME280;68206;59.956;30.234;2023-03-01T09:55:39;101187.78;;;4.04;44.10
78855;BME280;68206;59.956;30.234;2023-03-01T09:58:29;101199.13;;;3.97;43.71
78855;BME280;68206;59.956;30.234;2023-03-01T10:01:05;101182.41;;;3.83;44.12
78855;BME280;68206;59.956;30.234;2023-03-01T10:03:43;101193.75;;;3.73;43.87
78855;BME280;68206;59.956;30.234;2023-03-01T10:06:15;101189.25;;;3.56;44.56
78855;BME280;68206;59.956;30.234;2023-03-01T10:09:05;101188.38;;;3.54;44.91
78855;BME280;68206;59.956;30.234;2023-03-01T10:11:38;101184.84;;;3.48;45.85
78855;BME280;68206;59.956;30.234;2023-03-01T10:14:23;101179.56;;;3.46;45.72
78855;BME280;68206;59.956;30.234;2023-03-01T10:17:00;101159.50;;;3.48;45.32
78855;BME280;68206;59.956;30.234;2023-03-01T10:19:33;101159.50;;;3.48;45.05
78855;BME280;68206;59.956;30.234;2023-03-01T10:22:11;101153.34;;;3.42;45.56
78855;BME280;68206;59.956;30.234;2023-03-01T10:24:42;101148.13;;;3.43;45.69
78855;BME280;68206;59.956;30.234;2023-03-01T10:27:17;101156.91;;;3.54;45.25
78855;BME280;68206;59.956;30.234;2023-03-01T10:29:51;101150.88;;;3.68;45.13
78855;BME280;68206;59.956;30.234;2023-03-01T10:32:27;101144.75;;;3.70;45.16
78855;BME280;68206;59.956;30.234;2023-03-01T10:34:57;101150.81;;;3.58;45.65
78855;BME280;68206;59.956;30.234;2023-03-01T10:37:26;101138.59;;;3.60;46.40
78855;BME280;68206;59.956;30.234;2023-03-01T10:39:57;101134.19;;;3.53;46.51
78855;BME280;68206;59.956;30.234;2023-03-01T10:42:29;101130.69;;;3.53;46.99
78855;BME280;68206;59.956;30.234;2023-03-01T10:45:15;101129.78;;;3.49;47.18
78855;BME280;68206;59.956;30.234;2023-03-01T10:47:45;101127.13;;;3.46;48.04
78855;BME280;68206;59.956;30.234;2023-03-01T10:50:22;101128.88;;;3.46;48.49
78855;BME280;68206;59.956;30.234;2023-03-01T10:52:58;101123.66;;;3.47;48.63
78855;BME280;68206;59.956;30.234;2023-03-01T10:55:31;101110.47;;;3.38;48.99
78855;BME280;68206;59.956;30.234;2023-03-01T10:58:16;101117.47;;;3.36;49.59
78855;BME280;68206;59.956;30.234;2023-03-01T11:00:48;101112.19;;;3.30;50.17
78855;BME280;68206;59.956;30.234;2023-03-01T11:03:22;101102.56;;;3.24;50.41
78855;BME280;68206;59.956;30.234;2023-03-01T11:05:58;101101.69;;;3.32;49.66
78855;BME280;68206;59.956;30.234;2023-03-01T11:08:36;101096.41;;;3.22;49.63
78855;BME280;68206;59.956;30.234;2023-03-01T11:11:20;101099.06;;;3.24;50.15
78855;BME280;68206;59.956;30.234;2023-03-01T11:13:52;101098.13;;;3.19;50.30
78855;BME280;68206;59.956;30.234;2023-03-01T11:16:28;101088.47;;;3.10;51.22
78855;BME280;68206;59.956;30.234;2023-03-01T11:19:06;101084.91;;;2.99;50.82
78855;BME280;68206;59.956;30.234;2023-03-01T11:21:47;101071.84;;;3.04;50.87
78855;BME280;68206;59.956;30.234;2023-03-01T11:24:20;101068.41;;;3.11;50.34
78855;BME280;68206;59.956;30.234;2023-03-01T11:26:54;101063.19;;;3.17;50.53
78855;BME280;68206;59.956;30.234;2023-03-01T11:29:28;101052.72;;;3.20;50.64
78855;BME280;68206;59.956;30.234;2023-03-01T11:32:15;101065.81;;;3.17;51.16
78855;BME280;68206;59.956;30.234;2023-03-01T11:34:49;101052.66;;;3.12;51.55
78855;BME280;68206;59.956;30.234;2023-03-01T11:37:36;101054.44;;;3.12;51.55
78855;BME280;68206;59.956;30.234;2023-03-01T11:40:15;101058.78;;;3.13;52.06
78855;BME280;68206;59.956;30.234;2023-03-01T11:42:59;101063.16;;;3.14;51.86
78855;BME280;68206;59.956;30.234;2023-03-01T11:45:34;101056.16;;;3.10;52.53
78855;BME280;68206;59.956;30.234;2023-03-01T11:48:23;101053.53;;;3.10;52.89
78855;BME280;68206;59.956;30.234;2023-03-01T11:51:22;101051.81;;;3.12;53.26
78855;BME280;68206;59.956;30.234;2023-03-01T11:54:03;101057.84;;;3.06;53.70
78855;BME280;68206;59.956;30.234;2023-03-01T11:56:35;101055.25;;;3.05;53.71
78855;BME280;68206;59.956;30.234;2023-03-01T11:59:35;101054.34;;;3.00;54.69
78855;BME280;68206;59.956;30.234;2023-03-01T12:02:41;101051.69;;;2.95;55.46
78855;BME280;68206;59.956;30.234;2023-03-01T12:05:24;101051.59;;;2.80;55.40
78855;BME280;68206;59.956;30.234;2023-03-01T12:08:02;101050.75;;;2.86;55.76
78855;BME280;68206;59.956;30.234;2023-03-01T12:10:40;101036.75;;;2.80;55.75
78855;BME280;68206;59.956;30.234;2023-03-01T12:13:27;101030.59;;;2.75;56.24
78855;BME280;68206;59.956;30.234;2023-03-01T12:16:18;101030.59;;;2.74;56.58
78855;BME280;68206;59.956;30.234;2023-03-01T12:19:26;101024.44;;;2.67;56.96
78855;BME280;68206;59.956;30.234;2023-03-01T12:22:09;101026.19;;;2.68;57.24
78855;BME280;68206;59.956;30.234;2023-03-01T12:24:54;101020.03;;;2.60;57.50
78855;BME280;68206;59.956;30.234;2023-03-01T12:27:37;101029.59;;;2.55;57.69
78855;BME280;68206;59.956;30.234;2023-03-01T12:30:23;101008.59;;;2.52;59.04
78855;BME280;68206;59.956;30.234;2023-03-01T12:33:06;101007.63;;;2.39;59.17
78855;BME280;68206;59.956;30.234;2023-03-01T12:36:05;101006.66;;;2.27;60.20
78855;BME280;68206;59.956;30.234;2023-03-01T12:38:41;101004.84;;;2.21;60.21
78855;BME280;68206;59.956;30.234;2023-03-01T12:41:43;101004.91;;;2.24;60.88
78855;BME280;68206;59.956;30.234;2023-03-01T12:44:32;101000.53;;;2.25;61.45
78855;BME280;68206;59.956;30.234;2023-03-01T12:47:19;100990.94;;;2.27;61.99
78855;BME280;68206;59.956;30.234;2023-03-01T12:49:55;100989.13;;;2.20;62.72
78855;BME280;68206;59.956;30.234;2023-03-01T12:52:35;100982.09;;;2.13;63.20
78855;BME280;68206;59.956;30.234;2023-03-01T12:55:18;100976.78;;;2.03;63.74
78855;BME280;68206;59.956;30.234;2023-03-01T12:57:55;100982.84;;;1.98;64.28
78855;BME280;68206;59.956;30.234;2023-03-01T13:00:28;100954.06;;;1.96;64.33
78855;BME280;68206;59.956;30.234;2023-03-01T13:03:10;100956.59;;;1.89;64.36
78855;BME280;68206;59.956;30.234;2023-03-01T13:05:47;100967.94;;;1.89;64.29
78855;BME280;68206;59.956;30.234;2023-03-01T13:08:26;100971.41;;;1.85;64.66
78855;BME280;68206;59.956;30.234;2023-03-01T13:10:58;100973.09;;;1.80;65.14
78855;BME280;68206;59.956;30.234;2023-03-01T13:13:30;100966.91;;;1.72;65.71